Terminal Aerodrome Forecast
Issued by NWS Louisville, KY

Home | Current Version | Previous Version | Text Only | Print | Product List | Glossary On
Versions: 1 2 3 4 5 6 7 8 9 10 11 12 13 14 15 16 17 18 19 20 21 22
462
FTUS43 KLMK 132320
TAFBWG
TAF
KBWG 132320Z 1400/1424 00000KT P6SM SCT050 BKN150 PROB30 1411/1417
      5SM SHRA BKN025 BKN030 BKN035
     FM141700 16005KT P6SM BKN025
     FM141900 17004KT P6SM SCT030 BKN040=

USA.gov is the U.S. government's official web portal to all federal, state and local government web resources and services.